Time;durP1;ratioP1;P1;durP2;ratioP2;P2;SDS_P1;SDS_P2;PMS_P1;PMS_P2;Temp;Humidity;BMP_temperature;BMP_pressure;BME280_temperature;BME280_humidity;BME280_pressure;Samples;Min_cycle;Max_cycle;Signal;HPM_P1;HPM_P2
2022/06/21 00:02:46;;;;;;;8.80;2.08;;;;;;;9.97;nan;98075.50;10078250;29;20068;-68
2022/06/21 00:07:48;;;;;;;12.57;2.13;;;;;;;9.95;nan;98073.81;10078099;29;20069;-69
2022/06/21 00:12:49;;;;;;;8.75;2.75;;;;;;;9.93;nan;98065.16;10077191;29;20057;-69
2022/06/21 00:17:51;;;;;;;12.18;1.92;;;;;;;9.90;nan;98066.09;10078975;29;20529;-70
2022/06/21 00:22:53;;;;;;;11.85;2.05;;;;;;;9.82;nan;98028.84;10074340;29;20041;-69
2022/06/21 00:27:55;;;;;;;16.15;2.55;;;;;;;9.77;nan;98015.00;10092229;29;20420;-70
2022/06/21 00:32:57;;;;;;;12.45;2.30;;;;;;;9.76;nan;98010.66;10086325;29;20060;-70
2022/06/21 00:37:59;;;;;;;13.80;1.90;;;;;;;9.71;nan;98002.94;10086399;29;20540;-70
2022/06/21 00:43:06;;;;;;;18.85;2.53;;;;;;;9.64;nan;97973.50;10085573;29;20045;-70
2022/06/21 00:48:25;;;;;;;8.43;2.47;;;;;;;9.59;nan;97962.28;10086144;29;20405;-70
2022/06/21 00:53:33;;;;;;;8.67;2.67;;;;;;;9.51;nan;97932.88;10081039;29;20540;-70
2022/06/21 00:58:35;;;;;;;9.52;2.10;;;;;;;9.46;nan;97916.47;10086430;29;20080;-70
2022/06/21 01:03:40;;;;;;;12.57;2.05;;;;;;;9.40;nan;97898.31;10084205;29;20049;-70
2022/06/21 01:08:45;;;;;;;7.85;2.05;;;;;;;9.32;nan;97872.41;10085049;29;20052;-70
2022/06/21 01:13:50;;;;;;;11.63;1.92;;;;;;;9.16;nan;97823.19;10084868;29;20041;-70
2022/06/21 01:18:51;;;;;;;9.77;2.17;;;;;;;9.05;nan;97772.13;10086998;29;20048;-70
2022/06/21 01:24:05;;;;;;;9.18;2.05;;;;;;;8.84;nan;97694.34;10097305;29;20036;-70
2022/06/21 01:29:11;;;;;;;8.50;2.00;;;;;;;8.67;nan;97631.31;10100051;29;20075;-69
2022/06/21 01:34:23;;;;;;;6.65;1.83;;;;;;;8.61;nan;97611.44;10090000;29;20041;-70
2022/06/21 01:39:35;;;;;;;8.23;2.17;;;;;;;8.55;nan;97587.28;10087040;29;20049;-70
2022/06/21 01:44:41;;;;;;;8.20;2.63;;;;;;;8.54;nan;97586.44;10088511;29;20569;-70
2022/06/21 01:49:52;;;;;;;9.60;2.30;;;;;;;8.54;nan;97589.06;10083730;29;20516;-69
2022/06/21 01:55:38;;;;;;;11.57;2.75;;;;;;;8.49;nan;97573.50;10080602;29;20332;-70
2022/06/21 02:00:44;;;;;;;10.90;2.75;;;;;;;8.44;nan;97557.13;10061562;29;21680;-70
2022/06/21 02:05:53;;;;;;;9.98;3.13;;;;;;;8.42;nan;97560.63;10083164;29;20068;-69
2022/06/21 02:10:59;;;;;;;10.30;3.15;;;;;;;8.40;nan;97555.47;10081752;29;20064;-69
2022/06/21 02:16:07;;;;;;;11.80;2.50;;;;;;;8.36;nan;97548.63;10078978;29;20061;-69
2022/06/21 02:21:18;;;;;;;9.88;2.97;;;;;;;8.30;nan;97528.78;10081818;29;20125;-70
2022/06/21 02:26:22;;;;;;;10.02;2.65;;;;;;;8.23;nan;97490.72;10090009;29;20421;-69
2022/06/21 02:31:26;;;;;;;12.30;3.30;;;;;;;8.13;nan;97464.03;10076537;29;20059;-70
2022/06/21 02:36:32;;;;;;;8.65;2.40;;;;;;;8.12;nan;97458.88;10081588;29;20056;-70
2022/06/21 02:41:38;;;;;;;15.10;3.05;;;;;;;8.03;nan;97425.25;10081813;29;20057;-68
2022/06/21 02:46:45;;;;;;;6.68;2.20;;;;;;;7.95;nan;97402.84;10081227;29;20661;-69
2022/06/21 02:52:04;;;;;;;9.07;2.70;;;;;;;7.86;nan;97369.22;10080639;29;20082;-70
2022/06/21 02:57:16;;;;;;;9.93;3.00;;;;;;;7.83;nan;97361.50;10083731;29;24442;-70
2022/06/21 03:02:22;;;;;;;6.60;2.17;;;;;;;7.76;nan;97339.97;10081099;29;20052;-69
2022/06/21 03:07:28;;;;;;;12.40;2.38;;;;;;;7.70;nan;97310.63;10080394;29;20456;-70
2022/06/21 03:12:32;;;;;;;13.70;2.88;;;;;;;7.70;nan;97321.91;10080291;29;20045;-68
2022/06/21 03:17:40;;;;;;;7.13;2.13;;;;;;;7.73;nan;97340.06;10080059;29;20057;-70
2022/06/21 03:22:44;;;;;;;9.77;2.45;;;;;;;7.78;nan;97352.97;10082248;29;20040;-69
2022/06/21 03:27:57;;;;;;;12.98;3.35;;;;;;;7.92;nan;97421.16;10087594;29;20052;-69
2022/06/21 03:33:03;;;;;;;13.52;2.70;;;;;;;7.99;nan;97442.72;10073796;29;20073;-69
2022/06/21 03:38:05;;;;;;;12.65;3.22;;;;;;;8.02;nan;97460.03;10079526;29;20053;-70
2022/06/21 03:43:14;;;;;;;17.05;3.17;;;;;;;8.02;nan;97467.84;10079120;29;20457;-68
2022/06/21 03:48:21;;;;;;;9.32;3.05;;;;;;;8.02;nan;97471.28;10079153;29;20065;-70
2022/06/21 03:53:30;;;;;;;12.63;3.65;;;;;;;8.08;nan;97498.97;10074708;29;20470;-70
2022/06/21 03:58:58;;;;;;;14.80;3.67;;;;;;;8.22;nan;97555.94;10088316;29;20102;-69
2022/06/21 04:04:17;;;;;;;13.55;3.60;;;;;;;8.39;nan;97624.16;10076411;29;20057;-70
2022/06/21 04:09:38;;;;;;;10.32;3.63;;;;;;;8.52;nan;97683.84;10078828;29;20420;-69
2022/06/21 04:14:56;;;;;;;12.00;3.80;;;;;;;8.67;nan;97746.06;10072781;29;20049;-69
2022/06/21 04:20:09;;;;;;;12.30;4.57;;;;;;;8.96;nan;97857.59;10074261;29;20073;-69
2022/06/21 04:25:23;;;;;;;12.10;4.68;;;;;;;9.26;nan;97980.44;10086594;29;20052;-69
2022/06/21 04:30:48;;;;;;;11.63;4.32;;;;;;;9.49;nan;98083.56;10065769;29;20056;-69
2022/06/21 04:35:56;;;;;;;9.65;4.07;;;;;;;9.70;nan;98168.47;10079025;29;20524;-70
2022/06/21 04:41:18;;;;;;;11.30;4.10;;;;;;;9.85;nan;98235.22;10063771;29;20054;-69
2022/06/21 04:46:51;;;;;;;14.82;4.70;;;;;;;9.99;nan;98298.53;10057640;29;24823;-69
2022/06/21 04:52:00;;;;;;;14.25;4.47;;;;;;;10.20;nan;98375.66;10074199;29;20045;-70
2022/06/21 04:57:24;;;;;;;11.23;4.10;;;;;;;10.36;nan;98452.13;10081763;29;20048;-69
2022/06/21 05:02:28;;;;;;;13.43;3.90;;;;;;;10.56;nan;98527.59;10078209;29;20485;-68
2022/06/21 05:07:36;;;;;;;11.07;3.67;;;;;;;10.68;nan;98588.47;10078903;29;20083;-69
2022/06/21 05:12:42;;;;;;;13.45;3.85;;;;;;;10.79;nan;98639.75;10080887;29;20473;-70
2022/06/21 05:17:52;;;;;;;13.32;4.05;;;;;;;10.96;nan;98711.91;10080314;29;20057;-70
2022/06/21 05:22:58;;;;;;;9.85;3.80;;;;;;;11.02;nan;98735.34;10065355;29;20049;-69
2022/06/21 05:28:28;;;;;;;14.18;3.88;;;;;;;11.04;nan;98751.88;10079835;29;20544;-70
2022/06/21 05:33:55;;;;;;;13.17;4.10;;;;;;;11.13;nan;98793.63;10052903;29;20078;-70
2022/06/21 05:39:22;;;;;;;13.32;3.75;;;;;;;11.43;nan;98925.03;10078886;29;20049;-70
2022/06/21 05:44:52;;;;;;;11.95;4.25;;;;;;;12.03;nan;99161.88;10076890;29;20077;-70
2022/06/21 05:49:57;;;;;;;12.30;4.28;;;;;;;12.55;nan;99384.22;10052185;29;20095;-69
2022/06/21 05:55:04;;;;;;;10.57;3.10;;;;;;;12.92;nan;99537.81;10062984;29;20053;-70
2022/06/21 06:00:21;;;;;;;11.63;3.22;;;;;;;13.14;nan;99629.56;10080893;29;20081;-70
2022/06/21 06:05:31;;;;;;;10.30;3.15;;;;;;;13.14;nan;99632.19;10065747;29;20626;-69
2022/06/21 06:10:34;;;;;;;12.65;3.53;;;;;;;12.97;nan;99574.56;10076414;29;20053;-69
2022/06/21 06:15:44;;;;;;;9.57;3.03;;;;;;;13.02;nan;99592.00;10065065;29;20059;-71
2022/06/21 06:20:53;;;;;;;15.25;2.75;;;;;;;13.52;nan;99801.78;10067204;29;20055;-69
2022/06/21 06:26:05;;;;;;;6.93;2.50;;;;;;;13.92;nan;99980.28;10090996;29;20075;-70
2022/06/21 06:31:34;;;;;;;16.95;3.25;;;;;;;14.35;nan;100158.03;10070641;29;20531;-69
2022/06/21 06:36:44;;;;;;;9.25;2.13;;;;;;;14.47;nan;100207.97;10084201;29;20055;-70
2022/06/21 06:41:57;;;;;;;8.73;2.40;;;;;;;14.58;nan;100264.09;10082648;29;20052;-69
2022/06/21 06:47:01;;;;;;;9.43;2.50;;;;;;;14.74;nan;100333.41;10082525;29;20076;-71
2022/06/21 06:52:11;;;;;;;14.40;3.00;;;;;;;14.75;nan;100331.66;10078786;29;20054;-69
2022/06/21 06:57:34;;;;;;;7.57;2.20;;;;;;;15.16;nan;100512.38;10082968;29;20089;-71
2022/06/21 07:02:40;;;;;;;10.93;2.20;;;;;;;15.33;nan;100580.88;10062802;29;20055;-70
2022/06/21 07:07:48;;;;;;;9.07;2.08;;;;;;;15.47;nan;100642.34;10060141;29;20050;-69
2022/06/21 07:12:52;;;;;;;10.52;2.10;;;;;;;15.95;nan;100850.69;10067469;29;20052;-70
2022/06/21 07:17:57;;;;;;;7.32;2.05;;;;;;;15.97;nan;100864.75;10081836;29;20057;-70
2022/06/21 07:22:59;;;;;;;11.52;3.10;;;;;;;15.67;nan;100732.00;10072160;29;20076;-70
2022/06/21 07:28:09;;;;;;;13.18;2.17;;;;;;;15.61;nan;100702.09;10074239;29;20449;-69
2022/06/21 07:33:30;;;;;;;13.27;2.50;;;;;;;16.23;nan;100969.47;10059067;29;20052;-69
2022/06/21 07:38:40;;;;;;;10.75;1.88;;;;;;;17.64;nan;101576.78;10073980;29;20417;-71
2022/06/21 07:43:46;;;;;;;10.23;1.70;;;;;;;17.08;nan;101329.75;10074705;29;20048;-70
2022/06/21 07:49:14;;;;;;;5.80;1.70;;;;;;;16.68;nan;101157.88;10074504;29;20045;-70
2022/06/21 07:54:35;;;;;;;8.35;1.83;;;;;;;16.68;nan;101160.50;10061226;29;20045;-70
2022/06/21 07:59:43;;;;;;;7.85;1.80;;;;;;;17.95;nan;101698.66;10087280;29;20080;-70
2022/06/21 08:10:29;;;;;;;9.70;1.90;;;;;;;19.46;nan;102364.19;10072326;29;20622;-70
2022/06/21 08:15:37;;;;;;;9.77;1.98;;;;;;;18.43;nan;101897.53;10052788;29;20045;-71
2022/06/21 08:20:43;;;;;;;5.90;1.60;;;;;;;18.80;nan;102050.63;10081105;29;20076;-70
2022/06/21 08:25:58;;;;;;;7.82;1.60;;;;;;;19.76;nan;102471.53;10084851;29;20053;-70
2022/06/21 08:31:11;;;;;;;7.63;1.73;;;;;;;19.96;nan;102548.75;10079361;29;20473;-71
2022/06/21 08:36:31;;;;;;;8.10;1.83;;;;;;;20.31;nan;102699.66;10068617;29;20673;-70
2022/06/21 08:41:58;;;;;;;6.85;1.80;;;;;;;20.69;nan;102857.84;10049038;29;20059;-71
2022/06/21 08:47:18;;;;;;;7.47;1.73;;;;;;;20.11;nan;102588.72;10075311;29;20064;-70
2022/06/21 08:52:58;;;;;;;5.97;1.67;;;;;;;20.10;nan;102575.41;10081248;29;20531;-70
2022/06/21 08:58:24;;;;;;;8.38;1.40;;;;;;;21.56;nan;103220.03;10081870;29;20049;-71
2022/06/21 09:03:31;;;;;;;3.85;1.40;;;;;;;22.04;nan;103426.75;10076214;29;20064;-70
2022/06/21 09:08:49;;;;;;;9.13;1.80;;;;;;;21.52;nan;103172.91;10081816;29;20154;-70
2022/06/21 09:14:18;;;;;;;10.38;2.58;;;;;;;21.82;nan;103291.38;10083491;29;20539;-71
2022/06/21 09:19:40;;;;;;;9.10;1.65;;;;;;;20.96;nan;102886.47;10064564;29;20064;-71
2022/06/21 09:24:54;;;;;;;5.97;1.60;;;;;;;20.02;nan;102468.13;10065202;29;20053;-69
2022/06/21 09:30:13;;;;;;;6.70;1.65;;;;;;;19.99;nan;102437.09;10070421;29;20041;-70
2022/06/21 09:35:37;;;;;;;9.18;2.50;;;;;;;19.83;nan;102347.53;10079449;29;20072;-72
2022/06/21 09:40:57;;;;;;;8.63;1.77;;;;;;;20.55;nan;102661.69;10084644;29;20402;-70
2022/06/21 09:46:18;;;;;;;6.80;1.83;;;;;;;22.13;nan;103345.00;10078032;29;20045;-70
2022/06/21 09:51:44;;;;;;;6.72;1.88;;;;;;;22.17;nan;103349.50;10082753;29;20053;-69
2022/06/21 09:56:45;;;;;;;8.65;1.90;;;;;;;22.29;nan;103391.44;10096967;29;20603;-70
2022/06/21 10:01:59;;;;;;;10.23;2.10;;;;;;;22.15;nan;103316.59;10083582;29;20049;-70
2022/06/21 10:07:23;;;;;;;6.53;1.90;;;;;;;22.75;nan;103577.03;10079738;29;20338;-70
2022/06/21 10:12:25;;;;;;;6.53;2.05;;;;;;;21.87;nan;103167.88;10078241;29;20056;-70
2022/06/21 10:17:39;;;;;;;6.20;1.88;;;;;;;21.84;nan;103132.28;10077909;29;20056;-69
2022/06/21 10:23:15;;;;;;;7.28;1.83;;;;;;;22.52;nan;103418.34;10073816;29;20850;-69
2022/06/21 10:28:38;;;;;;;10.38;1.70;;;;;;;22.71;nan;103489.75;10092518;29;20073;-70
2022/06/21 10:33:58;;;;;;;4.07;1.50;;;;;;;23.40;nan;103782.59;10085538;29;20517;-70
2022/06/21 10:39:15;;;;;;;5.63;1.75;;;;;;;23.60;nan;103852.34;10077763;29;20501;-69
2022/06/21 10:44:32;;;;;;;6.03;1.50;;;;;;;23.70;nan;103886.34;10077187;29;20057;-70
2022/06/21 10:49:43;;;;;;;6.38;2.03;;;;;;;23.80;nan;103915.00;10071640;29;20063;-71
2022/06/21 10:54:55;;;;;;;8.40;2.13;;;;;;;23.70;nan;103843.53;10077991;29;20037;-70
2022/06/21 11:06:00;;;;;;;4.10;1.52;;;;;;;24.18;nan;104020.72;10067104;29;20502;-71
2022/06/21 11:11:15;;;;;;;6.75;1.73;;;;;;;24.26;nan;104042.19;10052617;29;20061;-70
2022/06/21 11:16:58;;;;;;;9.73;2.05;;;;;;;24.24;nan;104009.19;10065602;29;20049;-71
2022/06/21 11:22:03;;;;;;;5.07;1.55;;;;;;;24.42;nan;104070.94;10080817;29;20063;-69
2022/06/21 11:27:35;;;;;;;10.15;1.45;;;;;;;24.55;nan;104109.50;10095444;29;20059;-70
2022/06/21 11:32:49;;;;;;;6.60;1.40;;;;;;;24.43;nan;104029.03;10071338;29;20470;-71
2022/06/21 11:38:15;;;;;;;4.90;1.45;;;;;;;24.37;nan;103991.47;10077247;29;20076;-71
2022/06/21 11:43:31;;;;;;;6.25;1.60;;;;;;;24.84;nan;104179.50;10073155;29;20646;-70
2022/06/21 11:48:58;;;;;;;4.38;1.58;;;;;;;24.78;nan;104131.19;10076193;29;20053;-71
2022/06/21 11:54:13;;;;;;;8.10;1.52;;;;;;;25.03;nan;104219.91;10063983;29;20052;-71
2022/06/21 11:59:27;;;;;;;5.22;1.50;;;;;;;24.58;nan;104005.09;10067379;29;20057;-70
2022/06/21 12:04:35;;;;;;;6.65;1.52;;;;;;;23.59;nan;103549.22;10072425;29;20045;-71
2022/06/21 12:09:52;;;;;;;7.93;1.80;;;;;;;23.74;nan;103588.56;10072752;29;20069;-70
2022/06/21 12:15:09;;;;;;;4.82;1.45;;;;;;;24.25;nan;103804.81;10077282;29;20100;-70
2022/06/21 12:20:31;;;;;;;9.15;1.92;;;;;;;24.46;nan;103871.03;10071249;29;21745;-70
2022/06/21 12:25:33;;;;;;;10.82;1.50;;;;;;;24.46;nan;103858.53;10089187;29;20429;-71
2022/06/21 12:30:34;;;;;;;6.25;1.70;;;;;;;24.80;nan;103991.84;10082639;29;20064;-72
2022/06/21 12:35:55;;;;;;;4.82;1.48;;;;;;;25.01;nan;104069.78;10079985;29;20050;-70
2022/06/21 12:41:26;;;;;;;6.82;1.52;;;;;;;24.62;nan;103885.44;10078004;29;20369;-71
2022/06/21 12:46:53;;;;;;;5.28;1.50;;;;;;;24.66;nan;103888.16;10076151;29;20060;-70
2022/06/21 12:52:19;;;;;;;8.88;1.90;;;;;;;24.61;nan;103841.69;10077764;29;20576;-70
2022/06/21 12:58:02;;;;;;;7.93;1.40;;;;;;;24.25;nan;103666.50;10079904;29;20082;-70
2022/06/21 13:03:32;;;;;;;7.13;1.40;;;;;;;24.64;nan;103820.28;10076293;29;20041;-71
2022/06/21 13:08:59;;;;;;;5.40;1.50;;;;;;;25.26;nan;104077.13;10077447;29;20072;-70
2022/06/21 13:14:23;;;;;;;8.68;1.25;;;;;;;25.16;nan;104023.41;10077489;29;20072;-70
2022/06/21 13:19:34;;;;;;;5.93;1.55;;;;;;;25.20;nan;104019.84;10076426;29;20683;-72
2022/06/21 13:25:29;;;;;;;4.80;1.38;;;;;;;25.34;nan;104060.22;10064660;29;20530;-71
2022/06/21 13:30:48;;;;;;;4.80;1.30;;;;;;;25.04;nan;103911.63;10017723;29;20065;-71
2022/06/21 13:35:57;;;;;;;3.33;1.10;;;;;;;24.71;nan;103751.53;10080071;29;20052;-70
2022/06/21 13:46:49;;;;;;;3.92;1.05;;;;;;;24.30;nan;103554.06;10081418;29;20049;-71
2022/06/21 13:52:01;;;;;;;4.57;1.25;;;;;;;24.18;nan;103483.56;10083864;29;20466;-71
2022/06/21 13:57:36;;;;;;;3.72;1.13;;;;;;;24.52;nan;103613.94;10091035;29;20052;-71
2022/06/21 14:02:48;;;;;;;5.72;1.30;;;;;;;24.47;nan;103587.16;10076957;29;20049;-75
2022/06/21 14:08:12;;;;;;;5.38;1.42;;;;;;;24.34;nan;103505.00;10067170;29;20216;-75
2022/06/21 14:13:39;;;;;;;2.60;0.95;;;;;;;24.26;nan;103461.22;10072263;29;20045;-74
2022/06/21 14:19:11;;;;;;;3.97;1.38;;;;;;;24.17;nan;103408.59;10072066;29;20041;-75
2022/06/21 14:24:21;;;;;;;4.53;1.27;;;;;;;24.94;nan;103723.97;10066521;29;20565;-75
2022/06/21 14:29:32;;;;;;;4.07;1.10;;;;;;;25.16;nan;103814.28;10067740;29;20057;-73
2022/06/21 14:34:44;;;;;;;8.52;1.60;;;;;;;25.27;nan;103848.28;10071579;29;20390;-75
2022/06/21 14:40:28;;;;;;;17.38;1.83;;;;;;;25.40;nan;103893.97;10062699;29;20410;-75
2022/06/21 14:45:47;;;;;;;5.35;1.23;;;;;;;25.49;nan;103902.91;10030805;29;21389;-75
2022/06/21 14:51:06;;;;;;;7.47;1.13;;;;;;;25.14;nan;103749.03;10070558;29;20730;-75
2022/06/21 14:56:08;;;;;;;5.88;1.38;;;;;;;25.39;nan;103843.00;10082779;29;20055;-75
2022/06/21 15:01:28;;;;;;;3.60;1.17;;;;;;;25.64;nan;103936.97;10074084;29;20055;-76
2022/06/21 15:06:35;;;;;;;5.93;1.83;;;;;;;24.76;nan;103550.66;10080833;29;20442;-76
2022/06/21 15:12:00;;;;;;;3.90;1.33;;;;;;;24.65;nan;103489.00;10080371;29;20541;-77
2022/06/21 15:17:14;;;;;;;7.88;1.48;;;;;;;24.99;nan;103621.22;10070423;29;20047;-76
2022/06/21 15:22:37;;;;;;;8.18;1.85;;;;;;;25.12;nan;103667.72;10078130;29;20108;-75
2022/06/21 15:27:48;;;;;;;5.75;1.38;;;;;;;25.13;nan;103664.16;10081411;29;20048;-77
2022/06/21 15:32:59;;;;;;;6.40;1.33;;;;;;;25.03;nan;103608.72;10069933;29;20529;-77
2022/06/21 15:38:04;;;;;;;3.60;0.98;;;;;;;24.77;nan;103491.69;10079300;29;20740;-78
